sensor_id;sensor_type;location;lat;lon;timestamp;temperature;humidity
3778;DHT22;1904;50.076;8.660;2023-09-30T00:02:36;16.20;1.00
3778;DHT22;1904;50.076;8.660;2023-09-30T00:08:36;16.00;1.00
3778;DHT22;1904;50.076;8.660;2023-09-30T00:11:19;15.90;1.00
3778;DHT22;1904;50.076;8.660;2023-09-30T00:23:31;15.60;1.00
3778;DHT22;1904;50.076;8.660;2023-09-30T00:29:18;15.50;1.00
3778;DHT22;1904;50.076;8.660;2023-09-30T00:31:44;15.40;1.00
3778;DHT22;1904;50.076;8.660;2023-09-30T00:34:24;15.30;1.00
3778;DHT22;1904;50.076;8.660;2023-09-30T00:46:32;15.20;1.00
3778;DHT22;1904;50.076;8.660;2023-09-30T00:49:14;15.20;1.00
3778;DHT22;1904;50.076;8.660;2023-09-30T00:54:50;15.10;1.00
3778;DHT22;1904;50.076;8.660;2023-09-30T00:57:25;15.10;1.00
3778;DHT22;1904;50.076;8.660;2023-09-30T01:00:01;15.10;1.00
3778;DHT22;1904;50.076;8.660;2023-09-30T01:05:54;15.20;1.00
3778;DHT22;1904;50.076;8.660;2023-09-30T01:08:37;15.20;1.00
3778;DHT22;1904;50.076;8.660;2023-09-30T01:11:25;15.20;1.00
3778;DHT22;1904;50.076;8.660;2023-09-30T01:17:24;15.10;1.00
3778;DHT22;1904;50.076;8.660;2023-09-30T01:19:57;15.10;1.00
3778;DHT22;1904;50.076;8.660;2023-09-30T01:22:49;15.00;1.00
3778;DHT22;1904;50.076;8.660;2023-09-30T01:28:37;15.00;1.00
3778;DHT22;1904;50.076;8.660;2023-09-30T01:31:39;15.00;1.00
3778;DHT22;1904;50.076;8.660;2023-09-30T01:41:06;15.00;1.00
3778;DHT22;1904;50.076;8.660;2023-09-30T01:43:37;15.00;1.00
3778;DHT22;1904;50.076;8.660;2023-09-30T01:46:19;15.00;1.00
3778;DHT22;1904;50.076;8.660;2023-09-30T01:49:06;15.00;1.00
3778;DHT22;1904;50.076;8.660;2023-09-30T01:51:32;15.00;1.00
3778;DHT22;1904;50.076;8.660;2023-09-30T02:04:07;15.10;1.00
3778;DHT22;1904;50.076;8.660;2023-09-30T02:10:07;15.00;1.00
3778;DHT22;1904;50.076;8.660;2023-09-30T02:12:33;14.90;1.00
3778;DHT22;1904;50.076;8.660;2023-09-30T02:18:37;14.90;1.00
3778;DHT22;1904;50.076;8.660;2023-09-30T02:27:07;14.80;1.00
3778;DHT22;1904;50.076;8.660;2023-09-30T02:30:07;14.80;1.00
3778;DHT22;1904;50.076;8.660;2023-09-30T02:36:13;14.70;1.00
3778;DHT22;1904;50.076;8.660;2023-09-30T02:48:49;14.70;1.00
3778;DHT22;1904;50.076;8.660;2023-09-30T02:51:31;14.70;1.00
3778;DHT22;1904;50.076;8.660;2023-09-30T02:53:57;14.80;1.00
3778;DHT22;1904;50.076;8.660;2023-09-30T02:56:31;14.70;1.00
3778;DHT22;1904;50.076;8.660;2023-09-30T02:59:01;14.70;1.00
3778;DHT22;1904;50.076;8.660;2023-09-30T03:02:00;14.70;1.00
3778;DHT22;1904;50.076;8.660;2023-09-30T03:04:43;14.80;1.00
3778;DHT22;1904;50.076;8.660;2023-09-30T03:07:36;14.80;1.00
3778;DHT22;1904;50.076;8.660;2023-09-30T03:10:24;14.80;1.00
3778;DHT22;1904;50.076;8.660;2023-09-30T03:16:30;14.90;1.00
3778;DHT22;1904;50.076;8.660;2023-09-30T03:19:01;14.90;1.00
3778;DHT22;1904;50.076;8.660;2023-09-30T03:25:24;14.80;1.00
3778;DHT22;1904;50.076;8.660;2023-09-30T03:27:55;14.70;1.00
3778;DHT22;1904;50.076;8.660;2023-09-30T03:30:37;14.70;1.00
3778;DHT22;1904;50.076;8.660;2023-09-30T03:33:13;14.50;1.00
3778;DHT22;1904;50.076;8.660;2023-09-30T03:42:54;14.30;1.00
3778;DHT22;1904;50.076;8.660;2023-09-30T03:45:25;14.20;1.00
3778;DHT22;1904;50.076;8.660;2023-09-30T03:47:51;14.20;1.00
3778;DHT22;1904;50.076;8.660;2023-09-30T03:50:17;14.20;1.00
3778;DHT22;1904;50.076;8.660;2023-09-30T03:56:04;14.20;1.00
3778;DHT22;1904;50.076;8.660;2023-09-30T03:58:43;14.20;1.00
3778;DHT22;1904;50.076;8.660;2023-09-30T04:01:36;14.10;1.00
3778;DHT22;1904;50.076;8.660;2023-09-30T04:07:48;14.10;1.00
3778;DHT22;1904;50.076;8.660;2023-09-30T04:26:39;13.90;1.00
3778;DHT22;1904;50.076;8.660;2023-09-30T04:32:19;13.80;1.00
3778;DHT22;1904;50.076;8.660;2023-09-30T04:34:55;13.80;1.00
3778;DHT22;1904;50.076;8.660;2023-09-30T04:37:37;13.70;1.00
3778;DHT22;1904;50.076;8.660;2023-09-30T04:40:19;13.60;1.00
3778;DHT22;1904;50.076;8.660;2023-09-30T04:42:49;13.60;1.00
3778;DHT22;1904;50.076;8.660;2023-09-30T04:45:25;13.50;1.00
3778;DHT22;1904;50.076;8.660;2023-09-30T04:48:01;13.50;1.00
3778;DHT22;1904;50.076;8.660;2023-09-30T04:54:18;13.50;1.00
3778;DHT22;1904;50.076;8.660;2023-09-30T05:00:25;13.30;1.00
3778;DHT22;1904;50.076;8.660;2023-09-30T05:02:55;13.20;1.00
3778;DHT22;1904;50.076;8.660;2023-09-30T05:05:25;13.20;1.00
3778;DHT22;1904;50.076;8.660;2023-09-30T05:07:55;13.20;1.00
3778;DHT22;1904;50.076;8.660;2023-09-30T05:10:25;13.20;1.00
3778;DHT22;1904;50.076;8.660;2023-09-30T05:12:55;13.10;1.00
3778;DHT22;1904;50.076;8.660;2023-09-30T05:18:37;13.00;1.00
3778;DHT22;1904;50.076;8.660;2023-09-30T05:27:48;13.00;1.00
3778;DHT22;1904;50.076;8.660;2023-09-30T05:37:01;13.00;1.00
3778;DHT22;1904;50.076;8.660;2023-09-30T05:42:48;12.90;1.00
3778;DHT22;1904;50.076;8.660;2023-09-30T05:49:11;12.80;1.00
3778;DHT22;1904;50.076;8.660;2023-09-30T05:58:14;12.70;1.00
3778;DHT22;1904;50.076;8.660;2023-09-30T06:10:47;12.70;1.00
3778;DHT22;1904;50.076;8.660;2023-09-30T06:13:32;12.60;1.00
3778;DHT22;1904;50.076;8.660;2023-09-30T06:16:25;12.60;1.00
3778;DHT22;1904;50.076;8.660;2023-09-30T06:18:55;12.60;1.00
3778;DHT22;1904;50.076;8.660;2023-09-30T06:21:37;12.60;1.00
3778;DHT22;1904;50.076;8.660;2023-09-30T06:24:07;12.70;1.00
3778;DHT22;1904;50.076;8.660;2023-09-30T06:26:37;12.70;1.00
3778;DHT22;1904;50.076;8.660;2023-09-30T06:29:30;12.80;1.00
3778;DHT22;1904;50.076;8.660;2023-09-30T06:35:19;12.90;1.00
3778;DHT22;1904;50.076;8.660;2023-09-30T06:37:49;12.90;1.00
3778;DHT22;1904;50.076;8.660;2023-09-30T06:43:07;13.00;1.00
3778;DHT22;1904;50.076;8.660;2023-09-30T06:45:33;13.10;1.00
3778;DHT22;1904;50.076;8.660;2023-09-30T06:48:10;13.10;1.00
3778;DHT22;1904;50.076;8.660;2023-09-30T07:03:06;13.40;1.00
3778;DHT22;1904;50.076;8.660;2023-09-30T07:08:56;13.60;1.00
3778;DHT22;1904;50.076;8.660;2023-09-30T07:14:44;13.80;1.00
3778;DHT22;1904;50.076;8.660;2023-09-30T07:20:26;14.00;1.00
3778;DHT22;1904;50.076;8.660;2023-09-30T07:23:07;14.10;1.00
3778;DHT22;1904;50.076;8.660;2023-09-30T07:25:34;14.30;1.00
3778;DHT22;1904;50.076;8.660;2023-09-30T07:28:36;14.40;1.00
3778;DHT22;1904;50.076;8.660;2023-09-30T07:31:24;14.50;1.00
3778;DHT22;1904;50.076;8.660;2023-09-30T07:34:07;14.70;1.00
3778;DHT22;1904;50.076;8.660;2023-09-30T07:36:43;14.80;1.00
3778;DHT22;1904;50.076;8.660;2023-09-30T07:39:09;15.00;1.00
3778;DHT22;1904;50.076;8.660;2023-09-30T07:45:02;15.20;1.00
3778;DHT22;1904;50.076;8.660;2023-09-30T07:47:46;15.40;1.00
3778;DHT22;1904;50.076;8.660;2023-09-30T07:50:31;15.50;1.00
3778;DHT22;1904;50.076;8.660;2023-09-30T07:53:24;15.60;1.00
3778;DHT22;1904;50.076;8.660;2023-09-30T07:55:50;15.70;1.00
3778;DHT22;1904;50.076;8.660;2023-09-30T08:01:39;15.90;1.00
3778;DHT22;1904;50.076;8.660;2023-09-30T08:04:07;16.00;1.00
3778;DHT22;1904;50.076;8.660;2023-09-30T08:09:54;16.30;1.00
3778;DHT22;1904;50.076;8.660;2023-09-30T08:12:54;16.30;1.00
3778;DHT22;1904;50.076;8.660;2023-09-30T08:18:55;16.50;1.00
3778;DHT22;1904;50.076;8.660;2023-09-30T08:21:21;16.70;1.00
3778;DHT22;1904;50.076;8.660;2023-09-30T08:23:46;16.70;1.00
3778;DHT22;1904;50.076;8.660;2023-09-30T08:30:00;16.80;1.00
3778;DHT22;1904;50.076;8.660;2023-09-30T08:35:55;17.00;1.00
3778;DHT22;1904;50.076;8.660;2023-09-30T08:42:00;17.20;1.00
3778;DHT22;1904;50.076;8.660;2023-09-30T08:48:01;17.20;1.00
3778;DHT22;1904;50.076;8.660;2023-09-30T08:50:32;17.20;1.00
3778;DHT22;1904;50.076;8.660;2023-09-30T08:53:15;17.20;1.00
3778;DHT22;1904;50.076;8.660;2023-09-30T08:55:56;17.10;1.00
3778;DHT22;1904;50.076;8.660;2023-09-30T09:01:39;17.30;1.00
3778;DHT22;1904;50.076;8.660;2023-09-30T09:04:07;17.40;1.00
3778;DHT22;1904;50.076;8.660;2023-09-30T09:16:25;18.00;1.00
3778;DHT22;1904;50.076;8.660;2023-09-30T09:18:55;18.20;1.00
3778;DHT22;1904;50.076;8.660;2023-09-30T09:21:55;18.30;1.00
3778;DHT22;1904;50.076;8.660;2023-09-30T09:28:07;18.60;1.00
3778;DHT22;1904;50.076;8.660;2023-09-30T09:37:21;19.30;1.00
3778;DHT22;1904;50.076;8.660;2023-09-30T09:43:13;19.70;1.00
3778;DHT22;1904;50.076;8.660;2023-09-30T09:45:43;19.80;1.00
3778;DHT22;1904;50.076;8.660;2023-09-30T09:48:13;19.90;1.00
3778;DHT22;1904;50.076;8.660;2023-09-30T09:54:19;19.80;1.00
3778;DHT22;1904;50.076;8.660;2023-09-30T09:56:49;20.00;1.00
3778;DHT22;1904;50.076;8.660;2023-09-30T09:59:32;20.00;1.00
3778;DHT22;1904;50.076;8.660;2023-09-30T10:02:15;19.90;1.00
3778;DHT22;1904;50.076;8.660;2023-09-30T10:08:41;19.80;1.00
3778;DHT22;1904;50.076;8.660;2023-09-30T10:40:49;19.50;1.00
3778;DHT22;1904;50.076;8.660;2023-09-30T10:53:25;19.90;1.00
3778;DHT22;1904;50.076;8.660;2023-09-30T10:56:26;20.10;1.00
3778;DHT22;1904;50.076;8.660;2023-09-30T11:05:30;20.60;1.00
3778;DHT22;1904;50.076;8.660;2023-09-30T11:08:21;20.40;1.00
3778;DHT22;1904;50.076;8.660;2023-09-30T11:10:50;20.50;1.00
3778;DHT22;1904;50.076;8.660;2023-09-30T11:16:57;20.50;1.00
3778;DHT22;1904;50.076;8.660;2023-09-30T11:22:46;20.60;1.00
3778;DHT22;1904;50.076;8.660;2023-09-30T11:32:26;20.60;1.00
3778;DHT22;1904;50.076;8.660;2023-09-30T11:34:54;20.70;1.00
3778;DHT22;1904;50.076;8.660;2023-09-30T11:37:42;20.60;1.00
3778;DHT22;1904;50.076;8.660;2023-09-30T11:40:19;20.50;1.00
3778;DHT22;1904;50.076;8.660;2023-09-30T11:43:13;20.60;1.00
3778;DHT22;1904;50.076;8.660;2023-09-30T11:45:49;20.80;1.00
3778;DHT22;1904;50.076;8.660;2023-09-30T11:48:19;20.80;1.00
3778;DHT22;1904;50.076;8.660;2023-09-30T11:57:37;21.10;1.00
3778;DHT22;1904;50.076;8.660;2023-09-30T12:03:31;21.40;1.00
3778;DHT22;1904;50.076;8.660;2023-09-30T12:06:13;21.50;1.00
3778;DHT22;1904;50.076;8.660;2023-09-30T12:12:19;21.40;1.00
3778;DHT22;1904;50.076;8.660;2023-09-30T12:14:44;21.20;1.00
3778;DHT22;1904;50.076;8.660;2023-09-30T12:20:37;21.30;1.00
3778;DHT22;1904;50.076;8.660;2023-09-30T12:23:02;21.60;1.00
3778;DHT22;1904;50.076;8.660;2023-09-30T12:25:37;21.60;1.00
3778;DHT22;1904;50.076;8.660;2023-09-30T12:31:25;21.60;1.00
3778;DHT22;1904;50.076;8.660;2023-09-30T12:33:55;21.80;1.00
3778;DHT22;1904;50.076;8.660;2023-09-30T12:39:49;21.90;1.00
3778;DHT22;1904;50.076;8.660;2023-09-30T12:45:49;22.10;1.00
3778;DHT22;1904;50.076;8.660;2023-09-30T12:48:19;22.20;1.00
3778;DHT22;1904;50.076;8.660;2023-09-30T12:51:07;22.20;1.00
3778;DHT22;1904;50.076;8.660;2023-09-30T12:53:54;22.10;1.00
3778;DHT22;1904;50.076;8.660;2023-09-30T12:56:25;22.00;1.00
3778;DHT22;1904;50.076;8.660;2023-09-30T12:59:07;22.00;1.00
3778;DHT22;1904;50.076;8.660;2023-09-30T13:01:55;22.10;1.00
3778;DHT22;1904;50.076;8.660;2023-09-30T13:08:19;22.30;1.00
3778;DHT22;1904;50.076;8.660;2023-09-30T13:14:25;22.40;1.00
3778;DHT22;1904;50.076;8.660;2023-09-30T13:17:07;22.30;1.00
3778;DHT22;1904;50.076;8.660;2023-09-30T13:22:43;22.70;1.00
3778;DHT22;1904;50.076;8.660;2023-09-30T13:25:31;22.80;1.00
3778;DHT22;1904;50.076;8.660;2023-09-30T13:28:25;22.90;1.00
3778;DHT22;1904;50.076;8.660;2023-09-30T13:31:07;23.00;1.00
3778;DHT22;1904;50.076;8.660;2023-09-30T13:33:55;22.90;1.00
3778;DHT22;1904;50.076;8.660;2023-09-30T13:36:37;22.70;1.00
3778;DHT22;1904;50.076;8.660;2023-09-30T13:39:03;22.50;1.00
3778;DHT22;1904;50.076;8.660;2023-09-30T13:41:34;22.50;1.00
3778;DHT22;1904;50.076;8.660;2023-09-30T13:44:19;22.30;1.00
3778;DHT22;1904;50.076;8.660;2023-09-30T13:47:07;22.20;1.00
3778;DHT22;1904;50.076;8.660;2023-09-30T13:49:55;22.30;1.00
3778;DHT22;1904;50.076;8.660;2023-09-30T13:52:43;22.40;1.00
3778;DHT22;1904;50.076;8.660;2023-09-30T13:55:13;22.50;1.00
3778;DHT22;1904;50.076;8.660;2023-09-30T14:01:37;22.40;1.00
3778;DHT22;1904;50.076;8.660;2023-09-30T14:04:25;22.40;1.00
3778;DHT22;1904;50.076;8.660;2023-09-30T14:07:13;22.40;1.00
3778;DHT22;1904;50.076;8.660;2023-09-30T14:09:49;22.50;1.00
3778;DHT22;1904;50.076;8.660;2023-09-30T14:12:15;22.50;1.00
3778;DHT22;1904;50.076;8.660;2023-09-30T14:14:40;22.40;1.00
3778;DHT22;1904;50.076;8.660;2023-09-30T14:17:06;22.30;1.00
3778;DHT22;1904;50.076;8.660;2023-09-30T14:19:40;22.50;1.00
3778;DHT22;1904;50.076;8.660;2023-09-30T14:22:07;22.50;1.00
3778;DHT22;1904;50.076;8.660;2023-09-30T14:24:37;22.60;1.00
3778;DHT22;1904;50.076;8.660;2023-09-30T14:27:13;22.70;1.00
3778;DHT22;1904;50.076;8.660;2023-09-30T14:39:49;22.80;1.00
3778;DHT22;1904;50.076;8.660;2023-09-30T14:42:15;22.70;1.00
3778;DHT22;1904;50.076;8.660;2023-09-30T14:48:13;22.90;1.00
3778;DHT22;1904;50.076;8.660;2023-09-30T14:54:25;23.00;1.00
3778;DHT22;1904;50.076;8.660;2023-09-30T15:00:13;23.20;1.00
3778;DHT22;1904;50.076;8.660;2023-09-30T15:02:49;23.30;1.00
3778;DHT22;1904;50.076;8.660;2023-09-30T15:05:25;23.20;1.00
3778;DHT22;1904;50.076;8.660;2023-09-30T15:07:55;23.20;1.00
3778;DHT22;1904;50.076;8.660;2023-09-30T15:10:43;23.40;1.00
3778;DHT22;1904;50.076;8.660;2023-09-30T15:13:31;23.40;1.00
3778;DHT22;1904;50.076;8.660;2023-09-30T15:19:25;23.00;1.00
3778;DHT22;1904;50.076;8.660;2023-09-30T15:25:13;22.80;1.00
3778;DHT22;1904;50.076;8.660;2023-09-30T15:27:43;22.70;1.00
3778;DHT22;1904;50.076;8.660;2023-09-30T15:30:13;22.70;1.00
3778;DHT22;1904;50.076;8.660;2023-09-30T15:32:55;22.60;1.00
3778;DHT22;1904;50.076;8.660;2023-09-30T15:38:43;22.40;1.00
3778;DHT22;1904;50.076;8.660;2023-09-30T15:41:14;22.30;1.00
3778;DHT22;1904;50.076;8.660;2023-09-30T15:43:40;22.20;1.00
3778;DHT22;1904;50.076;8.660;2023-09-30T15:46:25;22.00;1.00
3778;DHT22;1904;50.076;8.660;2023-09-30T15:49:12;21.90;1.00
3778;DHT22;1904;50.076;8.660;2023-09-30T15:51:55;21.70;1.00
3778;DHT22;1904;50.076;8.660;2023-09-30T15:54:43;21.50;1.00
3778;DHT22;1904;50.076;8.660;2023-09-30T15:57:13;21.30;1.00
3778;DHT22;1904;50.076;8.660;2023-09-30T15:59:49;21.20;1.00
3778;DHT22;1904;50.076;8.660;2023-09-30T16:02:31;21.10;1.00
3778;DHT22;1904;50.076;8.660;2023-09-30T16:05:13;20.90;1.00
3778;DHT22;1904;50.076;8.660;2023-09-30T16:07:43;20.70;1.00
3778;DHT22;1904;50.076;8.660;2023-09-30T16:10:13;20.60;1.00
3778;DHT22;1904;50.076;8.660;2023-09-30T16:12:43;20.40;1.00
3778;DHT22;1904;50.076;8.660;2023-09-30T16:15:19;20.20;1.00
3778;DHT22;1904;50.076;8.660;2023-09-30T16:17:45;20.10;1.00
3778;DHT22;1904;50.076;8.660;2023-09-30T16:20:31;19.90;1.00
3778;DHT22;1904;50.076;8.660;2023-09-30T16:23:07;19.80;1.00
3778;DHT22;1904;50.076;8.660;2023-09-30T16:25:34;19.60;1.00
3778;DHT22;1904;50.076;8.660;2023-09-30T16:28:07;19.60;1.00
3778;DHT22;1904;50.076;8.660;2023-09-30T16:30:33;19.40;1.00
3778;DHT22;1904;50.076;8.660;2023-09-30T16:33:07;19.20;1.00
3778;DHT22;1904;50.076;8.660;2023-09-30T16:35:49;19.10;1.00
3778;DHT22;1904;50.076;8.660;2023-09-30T16:38:20;18.90;1.00
3778;DHT22;1904;50.076;8.660;2023-09-30T16:40:55;18.80;1.00
3778;DHT22;1904;50.076;8.660;2023-09-30T16:43:25;18.60;1.00
3778;DHT22;1904;50.076;8.660;2023-09-30T16:45:59;18.50;1.00
3778;DHT22;1904;50.076;8.660;2023-09-30T16:48:25;18.30;1.00
3778;DHT22;1904;50.076;8.660;2023-09-30T16:50:51;18.20;1.00
3778;DHT22;1904;50.076;8.660;2023-09-30T16:53:19;18.00;1.00
3778;DHT22;1904;50.076;8.660;2023-09-30T16:55:49;17.80;1.00
3778;DHT22;1904;50.076;8.660;2023-09-30T16:58:25;17.70;1.00
3778;DHT22;1904;50.076;8.660;2023-09-30T17:01:10;17.50;1.00
3778;DHT22;1904;50.076;8.660;2023-09-30T17:03:41;17.30;1.00
3778;DHT22;1904;50.076;8.660;2023-09-30T17:06:13;17.20;1.00
3778;DHT22;1904;50.076;8.660;2023-09-30T17:08:43;17.10;1.00
3778;DHT22;1904;50.076;8.660;2023-09-30T17:11:28;16.90;1.00
3778;DHT22;1904;50.076;8.660;2023-09-30T17:17:25;16.60;1.00
3778;DHT22;1904;50.076;8.660;2023-09-30T17:23:37;16.30;1.00
3778;DHT22;1904;50.076;8.660;2023-09-30T17:26:13;16.10;1.00
3778;DHT22;1904;50.076;8.660;2023-09-30T17:28:43;16.00;1.00
3778;DHT22;1904;50.076;8.660;2023-09-30T17:34:34;15.80;1.00
3778;DHT22;1904;50.076;8.660;2023-09-30T17:37:07;15.70;1.00
3778;DHT22;1904;50.076;8.660;2023-09-30T17:42:43;15.50;1.00
3778;DHT22;1904;50.076;8.660;2023-09-30T17:45:13;15.50;1.00
3778;DHT22;1904;50.076;8.660;2023-09-30T17:47:39;15.40;1.00
3778;DHT22;1904;50.076;8.660;2023-09-30T17:50:13;15.30;1.00
3778;DHT22;1904;50.076;8.660;2023-09-30T17:52:43;15.30;1.00
3778;DHT22;1904;50.076;8.660;2023-09-30T17:55:13;15.20;1.00
3778;DHT22;1904;50.076;8.660;2023-09-30T17:57:43;15.20;1.00
3778;DHT22;1904;50.076;8.660;2023-09-30T18:00:13;15.10;1.00
3778;DHT22;1904;50.076;8.660;2023-09-30T18:02:43;15.00;1.00
3778;DHT22;1904;50.076;8.660;2023-09-30T18:05:43;15.00;1.00
3778;DHT22;1904;50.076;8.660;2023-09-30T18:08:25;14.90;1.00
3778;DHT22;1904;50.076;8.660;2023-09-30T18:10:55;14.90;1.00
3778;DHT22;1904;50.076;8.660;2023-09-30T18:13:25;14.80;1.00
3778;DHT22;1904;50.076;8.660;2023-09-30T18:15:55;14.70;1.00
3778;DHT22;1904;50.076;8.660;2023-09-30T18:18:25;14.70;1.00
3778;DHT22;1904;50.076;8.660;2023-09-30T18:24:13;14.60;1.00
3778;DHT22;1904;50.076;8.660;2023-09-30T18:26:43;14.60;1.00
3778;DHT22;1904;50.076;8.660;2023-09-30T18:29:13;14.60;1.00
3778;DHT22;1904;50.076;8.660;2023-09-30T18:31:43;14.50;1.00
3778;DHT22;1904;50.076;8.660;2023-09-30T18:34:13;14.50;1.00
3778;DHT22;1904;50.076;8.660;2023-09-30T18:36:43;14.50;1.00
3778;DHT22;1904;50.076;8.660;2023-09-30T18:42:07;14.40;1.00
3778;DHT22;1904;50.076;8.660;2023-09-30T18:44:37;14.30;1.00
3778;DHT22;1904;50.076;8.660;2023-09-30T18:47:13;14.20;1.00
3778;DHT22;1904;50.076;8.660;2023-09-30T18:49:43;14.20;1.00
3778;DHT22;1904;50.076;8.660;2023-09-30T18:52:09;14.20;1.00
3778;DHT22;1904;50.076;8.660;2023-09-30T18:54:43;14.20;1.00
3778;DHT22;1904;50.076;8.660;2023-09-30T18:57:13;14.10;1.00
3778;DHT22;1904;50.076;8.660;2023-09-30T18:59:43;14.00;1.00
3778;DHT22;1904;50.076;8.660;2023-09-30T19:02:13;14.00;1.00
3778;DHT22;1904;50.076;8.660;2023-09-30T19:04:43;13.90;1.00
3778;DHT22;1904;50.076;8.660;2023-09-30T19:07:13;13.80;1.00
3778;DHT22;1904;50.076;8.660;2023-09-30T19:10:13;13.70;1.00
3778;DHT22;1904;50.076;8.660;2023-09-30T19:12:43;13.70;1.00
3778;DHT22;1904;50.076;8.660;2023-09-30T19:15:13;13.60;1.00
3778;DHT22;1904;50.076;8.660;2023-09-30T19:17:49;13.50;1.00
3778;DHT22;1904;50.076;8.660;2023-09-30T19:20:15;13.50;1.00
3778;DHT22;1904;50.076;8.660;2023-09-30T19:22:41;13.40;1.00
3778;DHT22;1904;50.076;8.660;2023-09-30T19:25:07;13.40;1.00
3778;DHT22;1904;50.076;8.660;2023-09-30T19:27:34;13.40;1.00
3778;DHT22;1904;50.076;8.660;2023-09-30T19:30:00;13.30;1.00
3778;DHT22;1904;50.076;8.660;2023-09-30T19:35:43;13.10;1.00
3778;DHT22;1904;50.076;8.660;2023-09-30T19:38:19;13.10;1.00
3778;DHT22;1904;50.076;8.660;2023-09-30T19:40:55;13.00;1.00
3778;DHT22;1904;50.076;8.660;2023-09-30T19:43:25;12.90;1.00
3778;DHT22;1904;50.076;8.660;2023-09-30T19:46:01;12.80;1.00
3778;DHT22;1904;50.076;8.660;2023-09-30T19:48:31;12.80;1.00
3778;DHT22;1904;50.076;8.660;2023-09-30T19:51:07;12.80;1.00
3778;DHT22;1904;50.076;8.660;2023-09-30T19:53:49;13.00;1.00
3778;DHT22;1904;50.076;8.660;2023-09-30T19:56:37;12.70;1.00
3778;DHT22;1904;50.076;8.660;2023-09-30T19:59:25;12.60;1.00
3778;DHT22;1904;50.076;8.660;2023-09-30T20:01:55;12.60;1.00
3778;DHT22;1904;50.076;8.660;2023-09-30T20:04:22;12.70;1.00
3778;DHT22;1904;50.076;8.660;2023-09-30T20:06:48;12.50;1.00
3778;DHT22;1904;50.076;8.660;2023-09-30T20:09:25;12.50;1.00
3778;DHT22;1904;50.076;8.660;2023-09-30T20:12:07;12.40;1.00
3778;DHT22;1904;50.076;8.660;2023-09-30T20:14:37;12.40;1.00
3778;DHT22;1904;50.076;8.660;2023-09-30T20:17:07;12.50;1.00
3778;DHT22;1904;50.076;8.660;2023-09-30T20:22:57;12.20;1.00
3778;DHT22;1904;50.076;8.660;2023-09-30T20:25:23;12.30;1.00
3778;DHT22;1904;50.076;8.660;2023-09-30T20:28:19;12.20;1.00
3778;DHT22;1904;50.076;8.660;2023-09-30T20:31:01;12.10;1.00
3778;DHT22;1904;50.076;8.660;2023-09-30T20:33:31;12.60;1.00
3778;DHT22;1904;50.076;8.660;2023-09-30T20:36:19;12.30;1.00
3778;DHT22;1904;50.076;8.660;2023-09-30T20:41:55;12.00;1.00
3778;DHT22;1904;50.076;8.660;2023-09-30T20:44:55;11.90;1.00
3778;DHT22;1904;50.076;8.660;2023-09-30T20:50:38;11.90;1.00
3778;DHT22;1904;50.076;8.660;2023-09-30T20:53:19;11.80;1.00
3778;DHT22;1904;50.076;8.660;2023-09-30T20:55:49;11.70;1.00
3778;DHT22;1904;50.076;8.660;2023-09-30T21:04:49;11.70;1.00
3778;DHT22;1904;50.076;8.660;2023-09-30T21:07:19;11.60;1.00
3778;DHT22;1904;50.076;8.660;2023-09-30T21:10:01;11.60;1.00
3778;DHT22;1904;50.076;8.660;2023-09-30T21:16:02;11.50;1.00
3778;DHT22;1904;50.076;8.660;2023-09-30T21:18:37;11.50;1.00
3778;DHT22;1904;50.076;8.660;2023-09-30T21:21:03;11.60;1.00
3778;DHT22;1904;50.076;8.660;2023-09-30T21:23:55;11.50;1.00
3778;DHT22;1904;50.076;8.660;2023-09-30T21:26:20;11.40;1.00
3778;DHT22;1904;50.076;8.660;2023-09-30T21:28:49;11.70;1.00
3778;DHT22;1904;50.076;8.660;2023-09-30T21:31:21;11.50;1.00
3778;DHT22;1904;50.076;8.660;2023-09-30T21:33:50;11.90;1.00
3778;DHT22;1904;50.076;8.660;2023-09-30T21:36:21;11.30;1.00
3778;DHT22;1904;50.076;8.660;2023-09-30T21:38:48;11.60;1.00
3778;DHT22;1904;50.076;8.660;2023-09-30T21:41:18;11.30;1.00
3778;DHT22;1904;50.076;8.660;2023-09-30T21:43:47;11.30;1.00
3778;DHT22;1904;50.076;8.660;2023-09-30T21:50:07;11.20;1.00
3778;DHT22;1904;50.076;8.660;2023-09-30T21:55:43;11.10;1.00
3778;DHT22;1904;50.076;8.660;2023-09-30T21:58:09;11.00;1.00
3778;DHT22;1904;50.076;8.660;2023-09-30T22:00:35;11.30;1.00
3778;DHT22;1904;50.076;8.660;2023-09-30T22:03:06;11.00;1.00
3778;DHT22;1904;50.076;8.660;2023-09-30T22:05:50;11.00;1.00
3778;DHT22;1904;50.076;8.660;2023-09-30T22:08:49;10.90;1.00
3778;DHT22;1904;50.076;8.660;2023-09-30T22:14:55;10.90;1.00
3778;DHT22;1904;50.076;8.660;2023-09-30T22:17:31;10.80;1.00
3778;DHT22;1904;50.076;8.660;2023-09-30T22:23:37;10.70;1.00
3778;DHT22;1904;50.076;8.660;2023-09-30T22:26:31;10.70;1.00
3778;DHT22;1904;50.076;8.660;2023-09-30T22:32:25;10.70;1.00
3778;DHT22;1904;50.076;8.660;2023-09-30T22:35:01;10.70;1.00
3778;DHT22;1904;50.076;8.660;2023-09-30T22:37:37;10.70;1.00
3778;DHT22;1904;50.076;8.660;2023-09-30T22:43:37;10.60;1.00
3778;DHT22;1904;50.076;8.660;2023-09-30T22:46:25;10.60;1.00
3778;DHT22;1904;50.076;8.660;2023-09-30T22:49:13;10.60;1.00
3778;DHT22;1904;50.076;8.660;2023-09-30T22:52:01;10.60;1.00
3778;DHT22;1904;50.076;8.660;2023-09-30T22:54:43;10.50;1.00
3778;DHT22;1904;50.076;8.660;2023-09-30T22:57:13;10.40;1.00
3778;DHT22;1904;50.076;8.660;2023-09-30T22:59:43;10.50;1.00
3778;DHT22;1904;50.076;8.660;2023-09-30T23:02:13;10.50;1.00
3778;DHT22;1904;50.076;8.660;2023-09-30T23:04:43;10.60;1.00
3778;DHT22;1904;50.076;8.660;2023-09-30T23:10:49;10.40;1.00
3778;DHT22;1904;50.076;8.660;2023-09-30T23:13:25;10.40;1.00
3778;DHT22;1904;50.076;8.660;2023-09-30T23:15:51;10.30;1.00
3778;DHT22;1904;50.076;8.660;2023-09-30T23:21:55;10.30;1.00
3778;DHT22;1904;50.076;8.660;2023-09-30T23:24:37;10.30;1.00
3778;DHT22;1904;50.076;8.660;2023-09-30T23:27:03;10.20;1.00
3778;DHT22;1904;50.076;8.660;2023-09-30T23:29:43;10.20;1.00
3778;DHT22;1904;50.076;8.660;2023-09-30T23:32:37;10.20;1.00
3778;DHT22;1904;50.076;8.660;2023-09-30T23:35:25;10.10;1.00
3778;DHT22;1904;50.076;8.660;2023-09-30T23:38:07;10.10;1.00
3778;DHT22;1904;50.076;8.660;2023-09-30T23:40:43;10.00;1.00
3778;DHT22;1904;50.076;8.660;2023-09-30T23:43:14;10.00;1.00
3778;DHT22;1904;50.076;8.660;2023-09-30T23:45:43;10.00;1.00
3778;DHT22;1904;50.076;8.660;2023-09-30T23:48:25;10.10;1.00
3778;DHT22;1904;50.076;8.660;2023-09-30T23:51:19;10.10;1.00
3778;DHT22;1904;50.076;8.660;2023-09-30T23:53:49;10.10;1.00
3778;DHT22;1904;50.076;8.660;2023-09-30T23:56:37;10.10;1.00
